createdAt,value
2022-10-18T00:04:29.292Z,14.98
2022-10-18T00:09:10.891Z,14.97
2022-10-18T00:13:51.309Z,14.94
2022-10-18T00:18:32.628Z,14.90
2022-10-18T00:23:13.096Z,14.83
2022-10-18T00:27:54.869Z,14.80
2022-10-18T00:32:37.887Z,14.87
2022-10-18T00:37:19.014Z,14.89
2022-10-18T00:41:59.173Z,14.87
2022-10-18T00:46:42.813Z,14.83
2022-10-18T00:51:26.627Z,14.83
2022-10-18T00:56:07.525Z,14.81
2022-10-18T01:00:48.241Z,14.83
2022-10-18T01:05:29.938Z,14.83
2022-10-18T01:10:23.074Z,14.83
2022-10-18T01:15:11.781Z,14.79
2022-10-18T01:20:18.738Z,14.88
2022-10-18T01:25:14.057Z,14.84
2022-10-18T01:30:13.179Z,14.89
2022-10-18T01:35:01.197Z,14.90
2022-10-18T01:39:46.321Z,14.90
2022-10-18T01:44:29.478Z,14.92
2022-10-18T01:49:09.774Z,15.02
2022-10-18T01:53:51.285Z,15.03
2022-10-18T01:58:40.912Z,14.99
2022-10-18T02:03:24.016Z,15.00
2022-10-18T02:08:19.328Z,14.99
2022-10-18T02:13:05.607Z,15.01
2022-10-18T02:17:46.993Z,14.93
2022-10-18T02:22:32.110Z,15.02
2022-10-18T02:27:13.148Z,15.04
2022-10-18T02:31:59.756Z,15.06
2022-10-18T02:36:44.609Z,15.07
2022-10-18T02:41:27.046Z,15.11
2022-10-18T02:46:07.631Z,15.09
2022-10-18T02:50:49.094Z,15.10
2022-10-18T03:00:15.826Z,15.17
2022-10-18T03:04:56.454Z,15.20
2022-10-18T03:09:37.973Z,15.15
2022-10-18T03:14:18.385Z,15.21
2022-10-18T03:18:58.629Z,15.27
2022-10-18T03:23:38.745Z,15.22
2022-10-18T03:28:20.517Z,15.20
2022-10-18T03:33:01.088Z,15.27
2022-10-18T03:37:41.230Z,15.20
2022-10-18T03:42:21.849Z,15.12
2022-10-18T03:47:03.525Z,15.13
2022-10-18T03:51:44.025Z,15.17
2022-10-18T03:56:24.209Z,15.12
2022-10-18T04:01:04.778Z,15.14
2022-10-18T04:05:47.451Z,15.14
2022-10-18T04:10:28.029Z,15.10
2022-10-18T04:15:08.962Z,15.10
2022-10-18T04:19:49.522Z,15.16
2022-10-18T04:24:31.227Z,15.13
2022-10-18T04:29:11.406Z,15.15
2022-10-18T04:33:52.024Z,15.15
2022-10-18T04:38:32.443Z,15.12
2022-10-18T04:43:13.726Z,15.16
2022-10-18T04:47:53.688Z,15.15
2022-10-18T04:52:33.721Z,15.17
2022-10-18T04:57:13.654Z,15.16
2022-10-18T05:01:55.167Z,15.18
2022-10-18T05:06:35.744Z,15.10
2022-10-18T05:11:15.785Z,15.04
2022-10-18T05:15:56.131Z,15.02
2022-10-18T05:20:37.488Z,14.97
2022-10-18T05:25:17.726Z,14.93
2022-10-18T05:30:01.250Z,14.92
2022-10-18T05:34:44.732Z,14.93
2022-10-18T05:39:26.228Z,15.04
2022-10-18T05:44:06.991Z,15.04
2022-10-18T05:48:51.348Z,15.05
2022-10-18T05:53:36.811Z,15.06
2022-10-18T05:58:19.026Z,15.03
2022-10-18T06:03:00.534Z,14.99
2022-10-18T06:07:41.493Z,15.03
2022-10-18T06:12:21.832Z,15.02
2022-10-18T06:17:03.845Z,15.04
2022-10-18T06:21:44.539Z,15.00
2022-10-18T06:26:26.042Z,15.01
2022-10-18T06:31:07.604Z,15.02
2022-10-18T06:35:57.350Z,15.08
2022-10-18T06:40:40.120Z,15.10
2022-10-18T06:45:20.428Z,15.15
2022-10-18T06:50:00.903Z,15.17
2022-10-18T06:54:45.215Z,15.18
2022-10-18T06:59:28.849Z,15.16
2022-10-18T07:04:11.653Z,15.13
2022-10-18T07:08:54.190Z,15.19
2022-10-18T07:13:36.238Z,15.22
2022-10-18T07:18:16.946Z,15.24
2022-10-18T07:22:57.410Z,15.18
2022-10-18T07:27:39.223Z,15.35
2022-10-18T07:32:21.458Z,15.39
2022-10-18T07:37:02.997Z,15.38
2022-10-18T07:41:43.301Z,15.34
2022-10-18T07:46:23.982Z,15.40
2022-10-18T07:51:07.495Z,15.44
2022-10-18T07:55:47.608Z,15.41
2022-10-18T08:00:27.786Z,15.62
2022-10-18T08:05:08.575Z,15.66
2022-10-18T08:09:50.542Z,15.76
2022-10-18T08:14:31.306Z,15.74
2022-10-18T08:19:11.698Z,15.85
2022-10-18T08:23:53.935Z,15.73
2022-10-18T08:28:36.887Z,15.73
2022-10-18T08:33:17.199Z,16.08
2022-10-18T08:37:57.848Z,16.15
2022-10-18T08:42:58.602Z,16.00
2022-10-18T08:47:43.446Z,15.93
2022-10-18T08:52:33.133Z,16.06
2022-10-18T08:57:18.183Z,16.22
2022-10-18T09:02:06.724Z,16.20
2022-10-18T09:07:02.265Z,16.04
2022-10-18T09:11:54.268Z,16.32
2022-10-18T09:16:46.825Z,15.98
2022-10-18T09:21:38.153Z,16.03
2022-10-18T09:26:21.593Z,15.84
2022-10-18T09:31:08.948Z,15.84
2022-10-18T09:35:53.472Z,16.03
2022-10-18T09:40:40.148Z,16.06
2022-10-18T09:45:28.652Z,16.06
2022-10-18T09:50:19.237Z,15.97
2022-10-18T09:55:02.357Z,15.90
2022-10-18T09:59:43.922Z,15.94
2022-10-18T10:04:25.646Z,15.91
2022-10-18T10:09:08.909Z,16.00
2022-10-18T10:13:49.791Z,16.35
2022-10-18T10:18:32.383Z,16.44
2022-10-18T10:23:22.232Z,16.59
2022-10-18T10:28:05.092Z,16.82
2022-10-18T10:32:48.266Z,17.07
2022-10-18T10:37:35.001Z,18.23
2022-10-18T10:42:17.301Z,17.89
2022-10-18T10:46:58.381Z,18.12
2022-10-18T10:51:41.041Z,18.60
2022-10-18T10:56:28.008Z,19.57
2022-10-18T11:01:25.784Z,19.15
2022-10-18T11:06:06.263Z,17.53
2022-10-18T11:11:09.989Z,17.08
2022-10-18T11:15:54.223Z,17.81
2022-10-18T11:20:39.619Z,19.38
2022-10-18T11:25:23.993Z,20.47
2022-10-18T11:30:20.729Z,20.73
2022-10-18T11:35:14.212Z,20.90
2022-10-18T11:40:04.549Z,18.56
2022-10-18T11:44:51.154Z,19.01
2022-10-18T11:49:48.680Z,19.60
2022-10-18T11:54:46.491Z,20.29
2022-10-18T11:59:38.788Z,20.94
2022-10-18T12:04:20.854Z,21.51
2022-10-18T12:09:04.354Z,20.06
2022-10-18T12:13:49.603Z,19.29
2022-10-18T12:18:32.382Z,19.15
2022-10-18T12:23:16.387Z,19.64
2022-10-18T12:33:03.498Z,19.04
2022-10-18T12:38:14.044Z,19.57
2022-10-18T12:42:54.825Z,18.53
2022-10-18T12:47:35.710Z,19.13
2022-10-18T12:52:23.024Z,18.42
2022-10-18T12:57:07.714Z,18.59
2022-10-18T13:02:36.042Z,18.98
2022-10-18T13:07:33.400Z,19.09
2022-10-18T13:12:45.153Z,19.48
2022-10-18T13:17:33.104Z,20.25
2022-10-18T13:22:28.468Z,19.13
2022-10-18T13:27:42.625Z,20.31
2022-10-18T13:32:32.798Z,19.53
2022-10-18T13:37:24.070Z,18.80
2022-10-18T13:42:29.660Z,21.76
2022-10-18T13:47:12.968Z,20.78
2022-10-18T13:52:09.216Z,21.75
2022-10-18T13:57:15.692Z,19.70
2022-10-18T14:02:15.126Z,20.64
2022-10-18T14:07:02.325Z,21.02
2022-10-18T14:11:50.219Z,20.89
2022-10-18T14:16:36.176Z,20.87
2022-10-18T14:21:27.393Z,22.28
2022-10-18T14:26:16.693Z,21.02
2022-10-18T14:30:59.017Z,21.91
2022-10-18T14:35:41.369Z,21.97
2022-10-18T14:40:29.753Z,21.74
2022-10-18T14:45:21.193Z,21.63
2022-10-18T14:50:01.674Z,20.22
2022-10-18T14:54:42.690Z,20.02
2022-10-18T14:59:25.747Z,21.93
2022-10-18T15:04:12.089Z,21.70
2022-10-18T15:08:56.305Z,20.66
2022-10-18T15:13:42.909Z,20.32
2022-10-18T15:18:24.914Z,20.84
2022-10-18T15:27:33.969Z,20.22
2022-10-18T15:32:20.417Z,21.12
2022-10-18T15:37:00.787Z,21.61
2022-10-18T15:41:49.030Z,20.63
2022-10-18T15:46:33.649Z,21.00
2022-10-18T15:51:41.321Z,20.17
2022-10-18T15:56:30.822Z,20.86
2022-10-18T16:01:17.284Z,21.04
2022-10-18T16:06:04.628Z,19.69
2022-10-18T16:10:45.441Z,19.29
2022-10-18T16:15:25.629Z,19.53
2022-10-18T16:20:06.671Z,17.56
2022-10-18T16:24:48.354Z,16.85
2022-10-18T16:29:32.125Z,16.21
2022-10-18T16:34:14.907Z,15.84
2022-10-18T16:38:55.269Z,15.60
2022-10-18T16:43:37.041Z,15.18
2022-10-18T16:48:19.292Z,14.98
2022-10-18T16:52:59.845Z,14.81
2022-10-18T16:57:40.070Z,14.47
2022-10-18T17:02:21.814Z,14.19
2022-10-18T17:07:02.278Z,14.14
2022-10-18T17:11:42.768Z,13.95
2022-10-18T17:21:09.089Z,13.67
2022-10-18T17:26:04.742Z,13.53
2022-10-18T17:30:48.780Z,13.37
2022-10-18T17:35:29.160Z,13.15
2022-10-18T17:40:11.398Z,13.17
2022-10-18T17:44:54.236Z,13.03
2022-10-18T17:49:37.298Z,12.85
2022-10-18T17:54:17.652Z,12.73
2022-10-18T17:58:59.350Z,12.67
2022-10-18T18:03:39.890Z,12.54
2022-10-18T18:08:20.673Z,12.49
2022-10-18T18:13:00.865Z,12.37
2022-10-18T18:17:58.247Z,12.29
2022-10-18T18:22:41.849Z,12.21
2022-10-18T18:27:23.552Z,12.04
2022-10-18T18:32:03.522Z,11.93
2022-10-18T18:36:45.453Z,11.81
2022-10-18T18:41:26.835Z,11.73
2022-10-18T18:46:07.420Z,11.63
2022-10-18T18:50:50.921Z,11.54
2022-10-18T18:55:34.584Z,11.51
2022-10-18T19:00:16.857Z,11.48
2022-10-18T19:04:57.000Z,11.42
2022-10-18T19:09:38.632Z,11.25
2022-10-18T19:19:08.879Z,11.05
2022-10-18T19:23:50.293Z,11.04
2022-10-18T19:28:30.448Z,10.94
2022-10-18T19:33:15.453Z,11.01
2022-10-18T19:37:55.692Z,10.92
2022-10-18T19:42:38.299Z,10.84
2022-10-18T19:47:21.031Z,10.78
2022-10-18T19:52:02.564Z,10.71
2022-10-18T19:56:43.578Z,10.55
2022-10-18T20:01:23.890Z,10.41
2022-10-18T20:06:04.836Z,10.38
2022-10-18T20:10:46.551Z,10.23
2022-10-18T20:15:27.748Z,10.24
2022-10-18T20:20:09.137Z,10.22
2022-10-18T20:24:49.886Z,10.26
2022-10-18T20:29:33.248Z,10.19
2022-10-18T20:34:13.248Z,10.21
2022-10-18T20:38:54.944Z,10.10
2022-10-18T20:43:35.658Z,10.01
2022-10-18T20:48:16.833Z,9.87
2022-10-18T20:52:56.822Z,9.82
2022-10-18T20:57:37.386Z,9.72
2022-10-18T21:02:17.805Z,9.84
2022-10-18T21:07:01.135Z,9.89
2022-10-18T21:11:42.530Z,9.93
2022-10-18T21:16:23.272Z,10.23
2022-10-18T21:21:14.798Z,10.21
2022-10-18T21:25:56.441Z,10.20
2022-10-18T21:30:36.563Z,10.11
2022-10-18T21:35:17.122Z,10.15
2022-10-18T21:39:57.314Z,10.11
2022-10-18T21:44:39.149Z,10.04
2022-10-18T21:49:19.879Z,10.04
2022-10-18T21:54:00.246Z,9.95
2022-10-18T21:58:42.173Z,9.88
2022-10-18T22:03:23.616Z,9.67
2022-10-18T22:08:04.722Z,9.79
2022-10-18T22:12:45.076Z,9.73
2022-10-18T22:17:25.582Z,9.53
2022-10-18T22:22:07.306Z,9.57
2022-10-18T22:26:47.925Z,9.53
2022-10-18T22:31:31.149Z,9.53
2022-10-18T22:36:11.375Z,9.20
2022-10-18T22:40:53.266Z,9.19
2022-10-18T22:45:33.645Z,9.08
2022-10-18T22:50:14.026Z,8.97
2022-10-18T22:54:54.742Z,8.90
2022-10-18T22:59:36.402Z,8.94
2022-10-18T23:04:16.785Z,8.69
2022-10-18T23:08:58.891Z,8.86
2022-10-18T23:13:39.727Z,8.64
2022-10-18T23:18:21.519Z,8.56
2022-10-18T23:23:02.059Z,8.38
2022-10-18T23:32:24.235Z,8.18
2022-10-18T23:37:05.629Z,8.16
2022-10-18T23:41:45.823Z,8.00
2022-10-18T23:46:26.464Z,8.00
2022-10-18T23:51:07.467Z,7.83
2022-10-18T23:55:54.542Z,7.76
